Time;durP1;ratioP1;P1;durP2;ratioP2;P2;SDS_P1;SDS_P2;PMS_P1;PMS_P2;Temp;Humidity;BMP_temperature;BMP_pressure;BME280_temperature;BME280_humidity;BME280_pressure;Samples;Min_cycle;Max_cycle;Signal;HPM_P1;HPM_P2
2023/06/29 00:00:06;;;;;;;16.92;11.50;;;15.90;99.90;;;-141.84;70.30;20693.94;4892789;29;20253;-60
2023/06/29 00:02:34;;;;;;;17.35;11.52;;;16.00;99.90;;;-141.84;70.88;20718.34;4885967;29;20249;-60
2023/06/29 00:05:02;;;;;;;20.85;11.32;;;16.00;99.90;;;-141.84;69.96;20693.94;4893094;29;20257;-59
2023/06/29 00:07:33;;;;;;;16.73;11.65;;;16.00;99.90;;;-141.84;70.35;20691.91;4901078;29;20261;-59
2023/06/29 00:10:03;;;;;;;17.05;11.45;;;16.00;99.90;;;-141.84;70.42;20693.94;4908343;28;20246;-60
2023/06/29 00:12:31;;;;;;;20.35;12.98;;;16.00;99.90;;;-141.84;70.17;20728.50;4866813;29;26919;-60
2023/06/29 00:15:00;;;;;;;17.95;12.60;;;16.00;99.90;;;-141.84;69.90;20698.00;4902789;28;20657;-60
2023/06/29 00:17:28;;;;;;;19.67;11.98;;;16.00;99.90;;;-141.84;70.57;20704.13;4902960;28;20211;-59
2023/06/29 00:19:56;;;;;;;16.80;12.10;;;16.00;99.90;;;-141.84;71.17;20665.50;4889587;29;20243;-60
2023/06/29 00:22:25;;;;;;;15.80;11.10;;;15.90;99.90;;;-141.84;71.56;20643.13;4882811;29;20665;-60
2023/06/29 00:24:56;;;;;;;16.35;11.50;;;15.90;99.90;;;-141.84;71.78;20659.38;4889935;29;20313;-60
2023/06/29 00:27:26;;;;;;;19.33;11.73;;;15.80;99.90;;;-141.84;71.07;20643.13;4889795;29;20309;-60
2023/06/29 00:29:54;;;;;;;16.40;11.38;;;15.80;99.90;;;-141.84;71.53;20643.13;4889336;29;20351;-59
2023/06/29 00:32:22;;;;;;;17.23;10.68;;;15.80;99.90;;;-141.84;72.22;20630.94;4882526;29;20257;-60
2023/06/29 00:34:50;;;;;;;13.98;10.02;;;15.70;99.90;;;-141.84;72.74;20606.53;4889182;29;20243;-61
2023/06/29 00:37:19;;;;;;;12.75;9.93;;;15.70;99.90;;;-141.84;72.76;20590.28;4889585;29;20751;-60
2023/06/29 00:39:47;;;;;;;13.45;10.18;;;15.60;99.90;;;-141.84;72.76;20606.53;4889317;29;20274;-60
2023/06/29 00:42:15;;;;;;;14.07;10.52;;;15.70;99.90;;;-141.84;72.80;20610.59;4881718;29;20313;-61
2023/06/29 00:44:46;;;;;;;13.48;9.75;;;15.70;99.90;;;-141.84;73.22;20604.50;4890014;29;20211;-59
2023/06/29 00:47:14;;;;;;;11.77;9.98;;;15.70;99.90;;;-141.84;73.85;20590.28;4888918;29;20238;-60
2023/06/29 00:49:42;;;;;;;13.40;9.55;;;15.60;99.90;;;-141.84;74.01;20557.75;4889209;29;20436;-60
2023/06/29 00:52:11;;;;;;;12.60;9.00;;;15.60;99.90;;;-141.84;74.35;20586.22;4887354;29;20725;-59
2023/06/29 00:54:40;;;;;;;10.05;8.25;;;15.40;99.90;;;-141.84;74.72;20543.53;4889451;29;20262;-61
2023/06/29 00:57:08;;;;;;;10.35;7.55;;;15.50;99.90;;;-141.84;74.46;20543.53;4889246;29;20745;-61
2023/06/29 00:59:37;;;;;;;11.23;7.93;;;15.40;99.90;;;-141.84;74.98;20531.31;4889471;29;20217;-60
2023/06/29 01:02:08;;;;;;;10.13;7.95;;;15.40;99.90;;;-141.84;74.73;20531.31;4888798;29;20230;-59
2023/06/29 01:04:38;;;;;;;10.68;8.00;;;15.30;99.90;;;-141.84;74.74;20545.56;4885008;29;20226;-59
2023/06/29 01:07:19;;;;;;;11.60;7.45;;;15.30;99.90;;;-141.84;74.94;20535.41;4894134;29;20230;-60
2023/06/29 01:09:48;;;;;;;9.73;7.75;;;15.30;99.90;;;-141.84;75.56;20561.81;4907947;28;20249;-60
2023/06/29 01:12:18;;;;;;;11.23;7.68;;;15.30;99.90;;;-141.84;75.75;20533.34;4900882;28;20258;-61
2023/06/29 01:14:49;;;;;;;11.23;7.97;;;15.30;99.90;;;-141.84;75.91;20500.84;4900116;28;20572;-60
2023/06/29 01:17:25;;;;;;;10.93;7.75;;;15.30;99.90;;;-141.84;75.70;20488.63;4907526;28;20313;-60
2023/06/29 01:19:54;;;;;;;11.27;7.25;;;15.30;99.90;;;-141.84;75.81;20539.47;4907915;28;20324;-60
2023/06/29 01:22:30;;;;;;;10.65;7.35;;;15.30;99.90;;;-141.84;75.90;20515.06;4899742;28;20236;-58
2023/06/29 01:25:01;;;;;;;12.00;7.60;;;15.30;99.90;;;-141.84;75.82;20537.44;4907914;28;20229;-60
2023/06/29 01:27:29;;;;;;;9.05;7.30;;;15.20;99.90;;;-141.84;75.49;20511.00;4908085;28;20320;-59
2023/06/29 01:30:00;;;;;;;10.38;6.72;;;15.30;99.90;;;-141.84;75.61;20531.31;4907511;28;20321;-59
2023/06/29 01:32:33;;;;;;;10.40;7.32;;;15.20;99.90;;;-141.84;75.77;20511.00;4898616;28;20703;-60
2023/06/29 01:35:03;;;;;;;11.80;7.18;;;15.30;99.90;;;-141.84;75.96;20574.00;4888282;29;20230;-59
2023/06/29 01:37:40;;;;;;;9.55;7.18;;;15.30;99.90;;;-141.84;76.59;20476.44;4888423;29;20652;-60
2023/06/29 01:40:14;;;;;;;8.88;6.85;;;15.30;99.90;;;-141.84;77.48;20437.81;4888544;29;20238;-59
2023/06/29 01:42:43;;;;;;;8.35;6.65;;;15.20;99.90;;;-141.84;78.00;20419.53;4888768;29;20242;-59
2023/06/29 01:45:12;;;;;;;7.28;6.00;;;15.00;99.90;;;-141.84;77.78;20472.38;4888754;29;20317;-60
2023/06/29 01:47:41;;;;;;;9.38;6.40;;;15.00;99.90;;;-141.84;78.13;20443.91;4888769;29;20221;-59
2023/06/29 01:50:10;;;;;;;8.50;5.78;;;14.90;99.90;;;-141.84;78.73;20494.75;4887591;29;20242;-59
2023/06/29 01:52:39;;;;;;;7.95;6.28;;;14.90;99.90;;;-141.84;79.31;20411.41;4887567;29;20239;-60
2023/06/29 01:55:12;;;;;;;11.00;6.22;;;14.80;99.90;;;-141.84;79.36;20427.66;4888480;29;20231;-60
2023/06/29 01:57:40;;;;;;;7.30;5.68;;;14.80;99.90;;;-141.84;79.26;20429.69;4888621;28;20314;-60
2023/06/29 02:00:10;;;;;;;6.80;5.65;;;14.80;99.90;;;-141.84;79.61;20409.38;4888164;28;20306;-60
2023/06/29 02:02:38;;;;;;;7.78;5.30;;;14.80;99.90;;;-141.84;79.03;20427.66;4886244;29;20274;-59
2023/06/29 02:05:08;;;;;;;8.13;5.88;;;14.70;99.90;;;-141.84;78.56;20415.47;4888009;29;20235;-60
2023/06/29 02:07:37;;;;;;;7.53;5.10;;;14.80;99.90;;;-141.84;78.52;20423.59;4897324;29;20329;-60
2023/06/29 02:10:06;;;;;;;6.57;5.45;;;14.80;99.90;;;-141.84;79.09;20384.97;4899577;28;20234;-60
2023/06/29 02:12:40;;;;;;;7.32;5.18;;;14.80;99.90;;;-141.84;79.04;20423.59;4869715;29;20267;-59
2023/06/29 02:15:09;;;;;;;7.50;5.13;;;14.80;99.90;;;-141.84;78.89;20415.47;4903068;28;20274;-60
2023/06/29 02:17:37;;;;;;;6.30;5.40;;;14.80;99.90;;;-141.84;79.57;20425.63;4907487;28;20245;-59
2023/06/29 02:20:09;;;;;;;8.18;5.72;;;14.80;99.90;;;-141.84;80.03;20401.22;4906361;28;20282;-60
2023/06/29 02:22:37;;;;;;;7.22;4.85;;;14.80;99.90;;;-141.84;80.56;20399.19;4906215;28;20872;-59
2023/06/29 02:25:06;;;;;;;7.07;4.78;;;14.80;99.90;;;-141.84;81.05;20411.41;4906269;28;20249;-59
2023/06/29 02:27:39;;;;;;;7.53;4.73;;;14.80;99.90;;;-141.84;81.33;20370.75;4906803;28;20292;-59
2023/06/29 02:30:08;;;;;;;6.25;4.97;;;14.80;99.90;;;-141.84;81.57;20362.63;4906547;28;20614;-60
2023/06/29 02:32:37;;;;;;;6.00;4.40;;;14.70;99.90;;;-141.84;81.93;20397.16;4897483;28;20225;-60
2023/06/29 02:35:06;;;;;;;6.43;4.55;;;14.70;99.90;;;-141.84;81.97;20374.81;4877927;29;20246;-59
2023/06/29 02:37:34;;;;;;;6.25;4.57;;;14.70;99.90;;;-141.84;82.19;20334.16;4868225;29;20314;-59
2023/06/29 02:40:03;;;;;;;8.93;5.25;;;14.60;99.90;;;-141.84;82.45;20340.25;4869221;29;20239;-61
2023/06/29 02:42:32;;;;;;;7.38;4.50;;;14.60;99.90;;;-141.84;82.66;20336.19;4865109;29;20241;-60
2023/06/29 02:45:01;;;;;;;6.35;5.28;;;14.60;99.90;;;-141.84;82.99;20334.16;4887506;29;20742;-59
2023/06/29 02:47:30;;;;;;;7.88;5.20;;;14.60;99.90;;;-141.84;82.37;20350.41;4887934;29;20297;-60
2023/06/29 02:49:59;;;;;;;6.88;4.43;;;14.60;99.90;;;-141.84;82.65;20328.06;4887719;29;20250;-60
2023/06/29 02:52:28;;;;;;;5.63;4.28;;;14.60;99.90;;;-141.84;82.94;20360.59;4880280;28;20238;-60
2023/06/29 02:54:56;;;;;;;7.90;4.85;;;14.70;99.90;;;-141.84;82.75;20358.56;4887756;29;20262;-60
2023/06/29 02:57:24;;;;;;;7.05;4.70;;;14.70;99.90;;;-141.84;82.67;20338.22;4887684;28;20254;-59
2023/06/29 02:59:52;;;;;;;7.20;5.07;;;14.70;99.90;;;-141.84;82.95;20328.06;4887842;29;20249;-59
2023/06/29 03:02:21;;;;;;;5.80;4.43;;;14.60;99.90;;;-141.84;82.98;20321.97;4880104;29;20299;-59
2023/06/29 03:04:50;;;;;;;7.47;4.80;;;14.60;99.90;;;-141.84;82.52;20344.31;4887130;29;20231;-60
2023/06/29 03:07:18;;;;;;;11.90;5.80;;;14.60;99.90;;;-141.84;82.26;20332.13;4893955;29;20305;-61
2023/06/29 03:09:46;;;;;;;7.03;4.70;;;14.60;99.90;;;-141.84;81.41;20391.06;4905644;28;20241;-60
2023/06/29 03:12:14;;;;;;;5.90;4.63;;;14.70;99.90;;;-141.84;81.38;20378.88;4898605;28;20230;-61
2023/06/29 03:14:42;;;;;;;7.78;5.18;;;14.70;99.90;;;-141.84;81.03;20374.81;4905822;28;20209;-60
2023/06/29 03:17:13;;;;;;;5.90;4.65;;;14.70;99.90;;;-141.84;80.75;20374.81;4905912;28;20269;-59
2023/06/29 03:19:44;;;;;;;6.63;4.50;;;14.70;99.90;;;-141.84;80.38;20352.44;4906037;28;20419;-65
2023/06/29 03:22:13;;;;;;;6.43;4.78;;;14.70;99.90;;;-141.84;80.39;20362.63;4898864;28;20313;-65
2023/06/29 03:24:41;;;;;;;6.32;4.75;;;14.70;99.90;;;-141.84;79.89;20395.13;4905798;28;20285;-65
2023/06/29 03:27:11;;;;;;;12.63;5.85;;;14.70;99.90;;;-141.84;79.67;20376.84;4905784;28;20717;-65
2023/06/29 03:29:39;;;;;;;5.95;4.75;;;14.80;99.90;;;-141.84;79.21;20403.25;4906689;28;20256;-65
2023/06/29 03:32:08;;;;;;;8.75;5.18;;;14.80;99.90;;;-141.84;78.66;20405.31;4905787;28;20325;-66
2023/06/29 03:34:36;;;;;;;5.32;4.68;;;14.80;99.90;;;-141.84;77.88;20439.84;4883708;28;20325;-64
2023/06/29 03:37:06;;;;;;;6.32;4.55;;;14.90;99.90;;;-141.84;76.69;20502.88;4887266;29;20241;-65
2023/06/29 03:39:34;;;;;;;5.15;3.90;;;15.00;99.90;;;-141.84;77.00;20490.66;4886975;29;20231;-67
2023/06/29 03:42:02;;;;;;;5.53;4.45;;;15.10;99.90;;;-141.84;77.30;20425.63;4887134;29;20219;-66
2023/06/29 03:44:30;;;;;;;4.68;3.78;;;15.10;99.90;;;-141.84;76.91;20492.72;4882939;28;20242;-64
2023/06/29 03:46:58;;;;;;;8.07;4.50;;;15.20;99.90;;;-141.84;75.62;20529.28;4903152;28;20325;-65
2023/06/29 03:49:26;;;;;;;7.22;4.25;;;15.30;99.90;;;-141.84;75.95;20492.72;4888760;28;20786;-65
2023/06/29 03:51:55;;;;;;;6.47;4.30;;;15.40;99.90;;;-141.84;75.51;20506.94;4890438;28;20326;-65
2023/06/29 03:54:25;;;;;;;7.13;4.28;;;15.40;99.90;;;-141.84;74.94;20492.72;4882893;29;20325;-65
2023/06/29 03:56:53;;;;;;;5.38;3.70;;;15.30;99.90;;;-141.84;75.89;20486.59;4890226;29;20586;-65
2023/06/29 03:59:22;;;;;;;7.25;3.90;;;15.30;99.90;;;-141.84;75.47;20486.59;4890761;29;20253;-65
2023/06/29 04:01:50;;;;;;;7.47;3.80;;;15.40;99.90;;;-141.84;74.96;20488.63;4890262;29;20330;-66
2023/06/29 04:04:18;;;;;;;6.15;4.40;;;15.40;99.90;;;-141.84;75.49;20508.97;4893944;28;20275;-66
2023/06/29 04:06:46;;;;;;;5.25;3.90;;;15.40;99.90;;;-141.84;75.03;20521.16;4904319;28;20289;-64
2023/06/29 04:09:14;;;;;;;8.05;4.03;;;15.40;99.90;;;-141.84;75.38;20474.41;4909030;29;20226;-65
2023/06/29 04:11:44;;;;;;;7.10;4.20;;;15.40;99.90;;;-141.84;74.95;20521.16;4896384;29;20727;-65
2023/06/29 04:14:12;;;;;;;5.13;4.03;;;15.50;99.90;;;-141.84;74.31;20529.28;4911047;28;20312;-65
2023/06/29 04:16:40;;;;;;;6.30;4.00;;;15.50;99.90;;;-141.84;73.38;20574.00;4913276;28;20246;-65
2023/06/29 04:19:08;;;;;;;7.10;3.95;;;15.60;99.90;;;-141.84;71.73;20598.41;4908731;28;20238;-65
2023/06/29 04:21:36;;;;;;;4.93;3.80;;;15.70;99.90;;;-141.84;70.77;20667.53;4908764;28;20322;-65
2023/06/29 04:24:06;;;;;;;4.90;4.20;;;15.90;99.90;;;-141.84;70.85;20671.59;4908492;28;20790;-65
2023/06/29 04:26:35;;;;;;;5.97;3.65;;;15.90;99.90;;;-141.84;70.34;20655.31;4901752;28;20214;-65
2023/06/29 04:29:05;;;;;;;4.82;3.30;;;15.90;99.90;;;-141.84;70.58;20622.81;4908130;28;20328;-66
2023/06/29 04:31:34;;;;;;;6.07;3.90;;;16.10;99.90;;;-141.84;70.29;20632.97;4908563;28;20588;-64
2023/06/29 04:34:03;;;;;;;5.95;3.35;;;16.10;99.90;;;-141.84;69.90;20661.44;4894682;28;20246;-65
2023/06/29 04:36:31;;;;;;;5.10;3.65;;;16.20;99.90;;;-141.84;69.82;20700.03;4882440;29;20389;-65
2023/06/29 04:39:00;;;;;;;6.97;3.50;;;16.30;99.90;;;-141.84;69.69;20716.31;4889879;29;20304;-65
2023/06/29 04:41:31;;;;;;;6.47;3.95;;;16.40;99.90;;;-141.84;69.46;20706.16;4890967;29;20266;-66
2023/06/29 04:44:01;;;;;;;5.82;3.67;;;16.40;99.90;;;-141.84;68.88;20736.63;4889452;29;20328;-66
2023/06/29 04:46:31;;;;;;;6.47;3.80;;;16.50;99.90;;;-141.84;67.73;20769.16;4882397;28;21184;-65
2023/06/29 04:49:06;;;;;;;5.22;3.42;;;16.60;99.90;;;-141.84;67.18;20801.69;4889827;28;20244;-65
2023/06/29 04:51:35;;;;;;;6.45;3.90;;;16.70;99.90;;;-141.84;65.83;20887.06;4889339;29;20334;-66
2023/06/29 04:54:05;;;;;;;3.92;3.20;;;16.90;99.90;;;-141.84;62.30;21248.94;4889296;29;20654;-66
2023/06/29 04:56:33;;;;;;;5.28;2.65;;;17.80;99.90;;;-141.84;55.04;21759.28;4882767;29;20229;-66
2023/06/29 04:59:01;;;;;;;5.93;2.60;;;19.20;99.90;;;-141.84;50.98;22263.59;4889235;29;20325;-65
2023/06/29 05:01:31;;;;;;;6.00;3.30;;;;;;;-141.84;45.20;22792.38;4889099;29;20288;-65
2023/06/29 05:03:59;;;;;;;6.22;2.85;;;20.70;99.90;;;-141.84;42.49;23164.59;4898628;29;20752;-66
2023/06/29 05:06:30;;;;;;;5.30;2.83;;;23.10;99.90;;;-141.84;40.91;23368.03;4896336;29;20516;-67
2023/06/29 05:08:58;;;;;;;4.18;2.60;;;24.10;99.90;;;-141.84;40.63;23563.31;4908471;28;20210;-67
2023/06/29 05:11:26;;;;;;;5.95;2.78;;;25.20;99.90;;;-141.84;39.11;23730.13;4898226;29;20314;-64
2023/06/29 05:13:54;;;;;;;5.63;2.83;;;25.70;99.90;;;-141.84;37.91;24008.84;4912678;28;20226;-66
2023/06/29 05:16:22;;;;;;;4.72;2.58;;;25.70;99.90;;;-141.84;37.49;24132.97;4907507;28;20742;-64
2023/06/29 05:18:52;;;;;;;5.72;2.60;;;26.30;99.90;;;-141.84;36.13;24440.19;4908315;28;20237;-66
2023/06/29 05:21:21;;;;;;;3.78;2.53;;;26.50;99.90;;;-141.84;36.50;24273.34;4908147;28;20230;-65
2023/06/29 05:23:49;;;;;;;3.03;2.40;;;26.90;99.90;;;-141.84;36.15;24320.16;4908596;28;20647;-67
2023/06/29 05:26:17;;;;;;;4.22;2.47;;;26.70;99.90;;;-141.84;35.38;24482.94;4919169;28;20234;-67
2023/06/29 05:28:46;;;;;;;3.83;2.20;;;26.80;99.90;;;-141.84;35.26;24495.13;4911868;28;20622;-67
2023/06/29 05:31:32;;;;;;;3.55;2.30;;;27.20;99.90;;;-141.84;35.43;24507.34;4907123;28;20297;-68
2023/06/29 05:34:02;;;;;;;3.80;2.42;;;27.20;99.90;;;-141.84;34.85;24513.44;4893943;28;20238;-66
2023/06/29 05:36:30;;;;;;;5.18;2.40;;;27.40;99.90;;;-141.84;35.10;24393.41;4881205;29;20338;-67
2023/06/29 05:38:58;;;;;;;3.08;2.30;;;27.50;99.90;;;-141.84;35.33;24224.53;4889251;29;20265;-67
2023/06/29 05:41:26;;;;;;;4.20;2.63;;;26.70;99.90;;;-141.84;35.93;24061.75;4889369;28;20206;-66
2023/06/29 05:43:54;;;;;;;4.32;2.53;;;26.20;99.90;;;-141.84;37.49;23642.66;4888761;29;20262;-67
2023/06/29 05:46:23;;;;;;;3.05;2.10;;;25.90;99.90;;;-141.84;39.23;23152.41;4881159;29;20310;-67
2023/06/29 05:48:51;;;;;;;3.92;2.85;;;25.00;99.90;;;-141.84;42.07;22737.47;4874679;29;20243;-66
2023/06/29 05:51:21;;;;;;;4.72;2.80;;;24.30;99.90;;;-141.84;42.83;22544.25;4870511;29;20258;-67
2023/06/29 05:53:49;;;;;;;6.63;2.70;;;23.40;99.90;;;-141.84;43.82;22450.69;4870162;29;20435;-69
2023/06/29 05:56:17;;;;;;;4.07;2.53;;;23.00;99.90;;;-141.84;44.40;22273.78;4899846;28;20238;-66
2023/06/29 05:58:46;;;;;;;5.22;2.63;;;22.70;99.90;;;-141.84;44.85;22176.16;4892523;29;20294;-67
2023/06/29 06:01:14;;;;;;;4.45;2.90;;;22.70;99.90;;;-141.84;45.76;22127.34;4888581;29;20321;-65
2023/06/29 06:03:43;;;;;;;5.05;2.42;;;22.30;99.90;;;-141.84;46.29;22072.44;4887806;29;20242;-67
2023/06/29 06:06:11;;;;;;;3.80;2.58;;;22.10;99.90;;;-141.84;46.65;22035.84;4884701;29;20238;-66
2023/06/29 06:08:40;;;;;;;4.63;2.53;;;22.20;99.90;;;-141.84;46.96;21964.66;4904050;29;20640;-66
2023/06/29 06:11:09;;;;;;;4.78;2.65;;;21.90;99.90;;;-141.84;46.03;21970.78;4897715;29;20317;-66
2023/06/29 06:13:37;;;;;;;2.90;2.60;;;21.70;99.90;;;-141.84;47.53;21966.69;4893461;29;20261;-66
2023/06/29 06:16:05;;;;;;;3.70;2.08;;;21.90;99.90;;;-141.84;46.92;22009.41;4906190;29;20703;-66
2023/06/29 06:18:33;;;;;;;5.18;2.33;;;22.00;99.90;;;-141.84;45.79;22037.88;4899352;28;20241;-67
2023/06/29 06:21:02;;;;;;;2.70;2.28;;;22.30;99.90;;;-141.84;46.42;22043.97;4907227;28;20224;-66
2023/06/29 06:23:30;;;;;;;3.78;2.35;;;22.30;99.90;;;-141.84;46.33;22031.78;4907247;28;20245;-66
2023/06/29 06:26:02;;;;;;;3.03;2.17;;;22.20;99.90;;;-141.84;47.12;22037.88;4906671;28;20233;-66
2023/06/29 06:28:30;;;;;;;5.40;2.22;;;22.40;99.90;;;-141.84;46.30;22080.56;4899401;28;20718;-66
2023/06/29 06:30:59;;;;;;;6.25;2.47;;;22.30;99.90;;;-141.84;45.77;22084.66;4903927;28;20234;-66
2023/06/29 06:33:30;;;;;;;2.83;2.03;;;22.40;99.90;;;-141.84;46.48;22076.50;4883718;29;20272;-67
2023/06/29 06:35:59;;;;;;;3.85;2.33;;;22.50;99.90;;;-141.84;45.92;22121.25;4887616;29;20217;-68
2023/06/29 06:38:28;;;;;;;2.47;2.13;;;22.50;99.90;;;-141.84;46.52;22119.22;4881246;29;20340;-68
2023/06/29 06:41:17;;;;;;;3.60;2.20;;;22.60;99.90;;;-141.84;44.57;22109.03;4906030;29;20241;-68
2023/06/29 06:43:46;;;;;;;3.10;2.20;;;22.50;99.90;;;-141.84;45.69;22062.28;4888930;29;20294;-69
2023/06/29 06:46:14;;;;;;;3.90;2.30;;;22.50;99.90;;;-141.84;45.53;22102.94;4882667;29;20238;-65
2023/06/29 06:48:42;;;;;;;3.60;2.17;;;22.50;99.90;;;-141.84;45.38;22137.50;4906418;29;20269;-67
2023/06/29 06:51:11;;;;;;;3.95;2.33;;;22.70;99.90;;;-141.84;46.17;22143.63;4903354;29;20266;-66
2023/06/29 06:53:40;;;;;;;3.67;2.60;;;22.70;99.90;;;-141.84;45.79;22111.09;4887877;29;20337;-66
2023/06/29 06:56:08;;;;;;;5.50;2.58;;;22.70;99.90;;;-141.84;46.09;22141.59;4887661;29;20798;-66
2023/06/29 06:58:38;;;;;;;2.50;2.30;;;22.70;99.90;;;-141.84;45.25;22143.63;4883665;29;20238;-75
2023/06/29 07:01:07;;;;;;;7.45;2.75;;;22.70;99.90;;;-141.84;45.43;22147.69;4887109;29;20302;-75
2023/06/29 07:03:35;;;;;;;2.85;2.33;;;22.80;99.90;;;-141.84;45.76;22131.41;4887817;29;20710;-76
2023/06/29 07:06:04;;;;;;;4.82;2.30;;;22.80;99.90;;;-141.84;45.36;22178.19;4888830;29;20311;-74
2023/06/29 07:08:34;;;;;;;3.75;2.08;;;22.90;99.90;;;-141.84;44.86;22176.16;4916088;28;20280;-74
2023/06/29 07:11:03;;;;;;;3.75;2.50;;;23.00;99.90;;;-141.84;44.28;22208.69;4901074;28;20234;-74
2023/06/29 07:13:31;;;;;;;5.80;2.58;;;23.10;99.90;;;-141.84;44.16;22231.06;4887492;29;20258;-74
2023/06/29 07:16:01;;;;;;;4.35;2.20;;;23.10;99.90;;;-141.84;43.54;22227.00;4897071;29;20270;-73
2023/06/29 07:18:31;;;;;;;2.72;1.88;;;23.20;99.90;;;-141.84;43.56;22243.25;4880032;29;20333;-75
2023/06/29 07:20:59;;;;;;;5.15;2.10;;;23.20;99.90;;;-141.84;44.48;22253.44;4887073;28;20230;-71
2023/06/29 07:23:30;;;;;;;3.80;1.92;;;23.30;99.90;;;-141.84;43.80;22263.59;4892572;28;20223;-72
2023/06/29 07:26:02;;;;;;;3.97;1.98;;;23.30;99.90;;;-141.84;43.51;22285.97;4892143;29;20737;-74
2023/06/29 07:28:30;;;;;;;3.10;2.13;;;23.30;99.90;;;-141.84;43.57;22292.06;4883868;28;20761;-74
2023/06/29 07:30:59;;;;;;;3.33;2.00;;;23.40;99.90;;;-141.84;44.17;22239.19;4890680;29;20238;-70
2023/06/29 07:33:30;;;;;;;4.05;2.10;;;23.20;99.90;;;-141.84;43.66;22288.00;4890466;29;20245;-72
2023/06/29 07:36:01;;;;;;;3.03;2.00;;;23.30;99.90;;;-141.84;43.84;22255.47;4890992;29;20257;-72
2023/06/29 07:38:29;;;;;;;3.45;2.28;;;23.30;99.90;;;-141.84;43.32;22281.91;4883778;29;20742;-68
2023/06/29 07:40:57;;;;;;;2.25;2.00;;;23.20;99.90;;;-141.84;44.41;22231.06;4891158;29;20706;-67
2023/06/29 07:43:25;;;;;;;5.85;2.38;;;23.20;99.90;;;-141.84;44.37;22255.47;4890563;29;20269;-68
2023/06/29 07:45:53;;;;;;;3.33;1.92;;;23.20;99.90;;;-141.84;43.91;22261.56;4890742;29;20246;-64
2023/06/29 07:48:23;;;;;;;4.03;2.20;;;23.20;99.90;;;-141.84;43.75;22283.94;4882982;29;20313;-68
2023/06/29 07:50:51;;;;;;;4.95;2.10;;;23.30;99.90;;;-141.84;43.89;22277.84;4890683;29;20221;-68
2023/06/29 07:53:20;;;;;;;3.97;1.98;;;23.40;99.90;;;-141.84;43.97;22253.44;4890443;29;20234;-68
2023/06/29 07:55:48;;;;;;;4.78;2.08;;;23.20;99.90;;;-141.84;43.96;22255.47;4890584;29;20277;-67
2023/06/29 07:58:17;;;;;;;3.47;2.10;;;23.20;99.90;;;-141.84;42.46;22257.50;4883224;29;20592;-65
2023/06/29 08:00:48;;;;;;;4.32;1.80;;;23.20;99.90;;;-141.84;41.70;22265.63;4894360;29;20322;-66
2023/06/29 08:03:17;;;;;;;3.22;1.83;;;23.20;99.90;;;-141.84;41.89;22314.44;4893067;29;20707;-69
2023/06/29 08:05:46;;;;;;;3.97;1.80;;;23.30;99.90;;;-141.84;42.28;22324.59;4909414;28;20309;-69
2023/06/29 08:08:17;;;;;;;2.03;1.80;;;23.40;99.90;;;-141.84;42.03;22332.75;4915842;28;20311;-68
2023/06/29 08:10:46;;;;;;;2.35;1.70;;;23.40;99.90;;;-141.84;41.66;22383.59;4915031;28;21007;-69
2023/06/29 08:13:15;;;;;;;3.00;1.80;;;23.50;99.90;;;-141.84;41.53;22353.09;4909257;29;20297;-68
2023/06/29 08:15:43;;;;;;;3.70;1.80;;;23.50;99.90;;;-141.84;41.38;22326.66;4923470;28;20287;-68
2023/06/29 08:18:11;;;;;;;3.47;1.90;;;23.50;99.90;;;-141.84;42.02;22298.16;4924655;28;20355;-69
2023/06/29 08:20:40;;;;;;;3.47;1.80;;;23.40;99.90;;;-141.84;42.19;22312.41;4927106;28;20213;-67
2023/06/29 08:23:09;;;;;;;3.47;1.90;;;23.40;99.90;;;-141.84;42.85;22308.34;4927110;28;20225;-65
2023/06/29 08:25:37;;;;;;;2.47;1.85;;;23.40;99.90;;;-141.84;43.45;22349.00;4924691;28;20262;-67
2023/06/29 08:28:06;;;;;;;2.25;2.00;;;23.50;99.90;;;-141.84;42.26;22391.72;4908885;29;20285;-67
2023/06/29 08:30:35;;;;;;;3.20;1.83;;;23.50;99.90;;;-141.84;42.26;22452.72;4901706;29;20734;-67
2023/06/29 08:33:03;;;;;;;5.25;1.98;;;23.80;99.90;;;-141.84;41.04;22554.41;4907834;29;20244;-67
2023/06/29 08:35:31;;;;;;;4.05;1.80;;;23.90;99.90;;;-141.84;40.08;22625.59;4908307;29;20694;-64
2023/06/29 08:38:00;;;;;;;2.13;1.67;;;24.10;99.90;;;-141.84;39.93;22676.44;4908805;29;20325;-64
2023/06/29 08:40:36;;;;;;;5.78;1.80;;;24.30;99.90;;;-141.84;38.64;22721.19;4891605;29;20270;-65
2023/06/29 08:43:04;;;;;;;3.25;1.60;;;24.50;99.90;;;-141.84;38.49;22818.81;4897800;29;20233;-65
2023/06/29 08:45:32;;;;;;;7.72;1.70;;;24.70;99.90;;;-141.84;38.06;22761.88;4908493;29;20313;-70
2023/06/29 08:48:02;;;;;;;2.45;1.75;;;24.60;99.90;;;-141.84;38.41;22772.03;4908228;29;20238;-67
2023/06/29 08:50:36;;;;;;;3.30;2.10;;;24.70;99.90;;;-141.84;38.89;22753.75;4901196;29;20611;-67
2023/06/29 08:53:05;;;;;;;2.67;1.90;;;24.70;99.90;;;-141.84;38.72;22753.75;4908124;29;20282;-66
2023/06/29 08:55:35;;;;;;;2.85;1.90;;;24.80;99.90;;;-141.84;38.72;22761.88;4907924;29;20297;-66
2023/06/29 08:58:05;;;;;;;3.70;1.60;;;24.90;99.90;;;-141.84;38.28;22810.69;4908486;29;20326;-64
2023/06/29 09:00:33;;;;;;;2.53;1.70;;;24.90;99.90;;;-141.84;38.33;22887.97;4900804;29;20334;-64
2023/06/29 09:03:04;;;;;;;2.08;1.80;;;25.10;99.90;;;-141.84;37.76;22920.53;4902475;29;20222;-81
2023/06/29 09:05:34;;;;;;;3.70;1.75;;;25.20;99.90;;;-141.84;37.76;22924.59;4890932;29;20218;-66
2023/06/29 09:08:03;;;;;;;2.20;1.92;;;25.30;99.90;;;-141.84;38.06;22877.81;4907656;29;20265;-70
2023/06/29 09:10:32;;;;;;;2.25;1.90;;;25.20;99.90;;;-141.84;38.25;22818.81;4897132;29;20269;-63
2023/06/29 09:13:03;;;;;;;2.75;1.90;;;25.10;99.90;;;-141.84;38.70;22798.47;4889198;29;20306;-66
2023/06/29 09:15:31;;;;;;;2.10;1.90;;;25.10;99.90;;;-141.84;39.01;22725.25;4914685;28;20236;-66
2023/06/29 09:18:00;;;;;;;2.60;1.85;;;24.90;99.90;;;-141.84;38.76;22767.97;4926676;28;20679;-67
2023/06/29 09:20:28;;;;;;;3.17;1.90;;;25.00;99.90;;;-141.84;40.21;22700.84;4919655;28;20213;-66
2023/06/29 09:22:56;;;;;;;3.20;1.83;;;24.70;99.90;;;-141.84;39.80;22672.38;4915179;28;20567;-66
2023/06/29 09:25:27;;;;;;;4.38;1.85;;;24.70;99.90;;;-141.84;39.93;22617.47;4907329;29;20282;-66
2023/06/29 09:28:05;;;;;;;2.35;1.67;;;24.60;99.90;;;-141.84;40.16;22639.84;4908172;29;20583;-63
2023/06/29 09:30:39;;;;;;;2.50;1.75;;;24.60;99.90;;;-141.84;39.97;22593.06;4899598;29;20612;-64
2023/06/29 09:33:09;;;;;;;4.18;2.10;;;24.40;99.90;;;-141.84;39.18;22603.22;4895683;29;20212;-66
2023/06/29 09:35:41;;;;;;;4.10;2.20;;;24.40;99.90;;;-141.84;39.12;22562.56;4888916;29;20298;-66
2023/06/29 09:38:10;;;;;;;2.75;1.80;;;24.40;99.90;;;-141.84;39.97;22556.47;4888612;29;20318;-73
2023/06/29 09:40:49;;;;;;;2.92;1.95;;;24.30;99.90;;;-141.84;39.59;22656.13;4886538;29;20681;-67
2023/06/29 09:43:20;;;;;;;2.60;1.80;;;24.50;99.90;;;-141.84;39.41;22631.72;4889861;29;20230;-69
2023/06/29 09:45:49;;;;;;;3.08;2.00;;;24.50;99.90;;;-141.84;39.64;22666.28;4888419;29;20262;-67
2023/06/29 09:48:22;;;;;;;5.18;1.90;;;24.60;99.90;;;-141.84;39.51;22603.22;4881440;29;20230;-68
2023/06/29 09:50:55;;;;;;;2.72;1.92;;;24.60;99.90;;;-141.84;40.26;22631.72;4893403;29;20305;-66
2023/06/29 09:53:33;;;;;;;3.15;1.90;;;24.50;99.90;;;-141.84;40.01;22650.00;4888759;29;20665;-67
2023/06/29 09:56:03;;;;;;;1.92;1.73;;;24.60;99.90;;;-141.84;39.44;22645.94;4888079;29;20226;-68
2023/06/29 09:58:33;;;;;;;1.83;1.70;;;24.60;99.90;;;-141.84;39.83;22621.53;4880165;29;20508;-67
2023/06/29 10:01:02;;;;;;;3.40;2.30;;;24.60;99.90;;;-141.84;38.45;22682.56;4887982;29;20794;-68
2023/06/29 10:03:32;;;;;;;4.20;2.05;;;24.70;99.90;;;-141.84;39.30;22664.25;4873377;29;20239;-68
2023/06/29 10:06:12;;;;;;;2.50;2.22;;;24.70;99.90;;;-141.84;38.76;22678.47;4885375;29;20270;-67
2023/06/29 10:08:43;;;;;;;4.03;2.20;;;24.70;99.90;;;-141.84;39.78;22778.16;4871885;29;20235;-67
2023/06/29 10:11:12;;;;;;;4.55;2.20;;;24.80;99.90;;;-141.84;39.63;22704.94;4868922;29;20270;-68
2023/06/29 10:13:48;;;;;;;2.03;1.90;;;24.90;99.90;;;-141.84;39.06;22739.50;4882986;29;20310;-66